Palic, Serbia
Current Conditions -  °F | °C
As of 7:15 AM on Tuesday 21 Oct 2014 (Local Time) from LHUD Reporting Station
Haze Haze  
Wind Chill: 52°   Ceiling: 5300
Heat Index: 52°   Visibility: 2.2mi
Dew Point: 50°   Wind: 6mph
Humidity: 94%   Direction: 170°S
Pressure: 29.88"   Gusts: NA
Location:  46.11°N, 19.77°E
Report Text: LHUD 210515Z 17005KT 3600 BR BKN053 11/10 Q1012
Loading
Personal Weather Stations






























Interactive Weather Map
Tropical Storm Tracking
New forecast layout! Learn more

10-Day Weather Forecast

Advertisements
Track Severe Weather on mobile